RJAARJFT

Guest
Details From RJAA - Narita Intl
To RJFT - Kumamoto
Flight Number -
Tags Generated
Created
Modified
Stats Distance 505 nm / 936 km
Max Altitude 0 ft / 0 m
Waypoints 4
Social Downloads 3
Likes 0
Share VATSIM

Download

Looking for another format? Having issues loading an existing format? Contact us
Advertisement - Login to hide

Notes

Generated

Route

RJAA YAGYU R1742 RJFT

ID Type Via Altitude Latitude Longitude Leg Dist Tot Dist Heading (true) Name
O RJAA APT - 0 ft / 0 m 35.80271˚ 140.37991˚ - 0 nm - -
YAGYU FIX - 0 ft / 0 m 34.54425˚ 135.96057˚ 229 nm 229 nm 252° / 250° -
R1742 FIX - 0 ft / 0 m 32.83151˚ 130.84058˚ 275 nm 505 nm 250° / 247° -
O RJFT APT - 0 ft / 0 m 32.83151˚ 130.84058˚ 0 nm 505 nm 0° / 180° -

Altitude Profile

Advertisement - Login to hide

Weather


0- 5 10 15 20 25 30 35+ Temperature / ° C

Clouds and Precipitation
Forecast for 2017-12-16 12:00 UTC. Updated 16 minutes ago

Ground ~20,000 ft ~40,000 ft Winds

RJAA

Details ICAO RJAA (NRT)
Name NARITA INTL
Region Japan
Timezone Asia/Tokyo (UTC+9.0)
Stats Elevation 141 ft / 43 m (AMSL)
Location 35.776552° 140.382770°
Runways 2
Magnetic Variation 7.406° W

METAR

RJAA 161130Z 27005KT 240V300 9999 FEW030 SCT150 BKN/// 12/03 Q1007 WS R16L NOSIG RMK 1CU030 3AC150 A2974

Decode

TAF

TAF RJAA 160510Z 1606/1712 23010KT 9999 FEW030 BECMG 1614/1616 30010KT

Decode

Departure Runways

ID Width Length Bearing (true) Bearing (mag) Surface Threshold Offset Overrun Length
16L 196 ft / 60 m 7,162 ft / 2,183 m 149.61° 157.02° Asphalt 190 ft / 58 m 0 ft / 0 m
16R 196 ft / 60 m 13,142 ft / 4,006 m 149.61° 157.02° Asphalt 0 ft / 0 m 410 ft / 125 m
34L 196 ft / 60 m 13,142 ft / 4,006 m 329.62° 337.03° Asphalt 0 ft / 0 m 415 ft / 126 m
34R 196 ft / 60 m 7,162 ft / 2,183 m 329.62° 337.03° Asphalt 190 ft / 58 m 0 ft / 0 m

RJFT

Details ICAO RJFT (KMJ)
Name KUMAMOTO
Region Japan
Timezone Asia/Tokyo (UTC+9.0)
Stats Elevation 642 ft / 196 m (AMSL)
Location 32.837318° 130.855052°
Runways 1
Magnetic Variation 7.226° W

METAR

RJFT 161100Z 29010KT 9999 FEW030 SCT045 04/M03 Q1024

Decode

TAF

TAF RJFT 160512Z 1606/1712 31007KT 9999 FEW020 SCT030 BKN040

Decode

Destination Runways

ID Width Length Bearing (true) Bearing (mag) Surface Threshold Offset Overrun Length
07 150 ft / 46 m 9,833 ft / 2,997 m 64.47° 71.70° Asphalt 0 ft / 0 m 200 ft / 61 m
25 150 ft / 46 m 9,833 ft / 2,997 m 244.49° 251.72° Asphalt 0 ft / 0 m 200 ft / 61 m

Approach Navaids

Runway Type Ident Frequency Range Bearing (true) Bearing (mag) Slope Elevation
07 Localiser IKU 109.30 MHz 18 nm / 33 km 64.49° 71.71° - 642 ft / 196 m (AMSL)
07 Glidescope IKU 109.30 MHz 10 nm / 19 km 64.48° 71.71° 3.00° 651 ft / 198 m (AMSL)

Popular Alternatives